Time;durP1;ratioP1;P1;durP2;ratioP2;P2;SDS_P1;SDS_P2;PMS_P1;PMS_P2;Temp;Humidity;BMP_temperature;BMP_pressure;BME280_temperature;BME280_humidity;BME280_pressure;Samples;Min_cycle;Max_cycle;Signal;HPM_P1;HPM_P2
2021/06/25 00:02:15;;;;;;;13.23;9.98;;;;;;;25.55;56.20;99519.16;5056572;28;20488;-68
2021/06/25 00:04:41;;;;;;;28.20;12.15;;;;;;;25.55;57.83;99517.25;5056249;28;20504;-66
2021/06/25 00:07:06;;;;;;;18.95;9.95;;;;;;;25.43;57.74;99499.47;5056198;28;20102;-68
2021/06/25 00:09:32;;;;;;;19.85;11.63;;;;;;;25.52;57.86;99516.94;5072931;28;20041;-69
2021/06/25 00:11:58;;;;;;;23.00;11.82;;;;;;;25.38;57.99;99483.91;5056712;28;20044;-68
2021/06/25 00:14:24;;;;;;;26.92;13.35;;;;;;;25.51;58.59;99505.25;5056126;28;20040;-68
2021/06/25 00:16:50;;;;;;;19.02;10.32;;;;;;;25.44;57.01;99482.06;5072775;28;20036;-68
2021/06/25 00:19:17;;;;;;;19.00;10.73;;;;;;;25.53;56.88;99494.09;5072331;28;20091;-68
2021/06/25 00:21:43;;;;;;;16.83;10.65;;;;;;;25.50;56.33;99483.75;5039233;28;20529;-68
2021/06/25 00:24:09;;;;;;;16.58;10.13;;;;;;;25.56;56.08;99504.47;5072298;28;20558;-68
2021/06/25 00:26:35;;;;;;;17.50;10.65;;;;;;;25.54;56.35;99496.56;5038910;28;20066;-68
2021/06/25 00:29:01;;;;;;;16.35;10.82;;;;;;;25.54;56.65;99487.59;5072031;28;20102;-67
2021/06/25 00:31:27;;;;;;;24.98;11.80;;;;;;;25.53;57.31;99489.50;5071460;28;20045;-69
2021/06/25 00:33:53;;;;;;;20.48;11.55;;;;;;;25.52;57.64;99485.13;5054110;28;20070;-69
2021/06/25 00:36:18;;;;;;;28.38;13.18;;;;;;;25.53;58.40;99489.50;5054162;28;20432;-69
2021/06/25 00:38:44;;;;;;;36.00;12.75;;;;;;;25.53;58.19;99486.78;5054126;28;20040;-69
2021/06/25 00:41:10;;;;;;;19.23;11.52;;;;;;;25.55;57.38;99481.91;5071232;28;20151;-68
2021/06/25 00:43:39;;;;;;;27.95;12.48;;;;;;;25.54;57.84;99484.88;5054295;28;20036;-68
2021/06/25 00:46:05;;;;;;;22.30;12.52;;;;;;;25.54;59.03;99474.81;5055322;28;20416;-69
2021/06/25 00:48:31;;;;;;;24.25;12.70;;;;;;;25.52;58.92;99468.81;5072404;28;20052;-68
2021/06/25 00:50:57;;;;;;;30.13;12.60;;;;;;;25.51;59.11;99463.66;5054958;28;20036;-68
2021/06/25 00:53:24;;;;;;;26.48;13.40;;;;;;;25.50;59.34;99459.25;5039138;28;20062;-68
2021/06/25 00:55:50;;;;;;;22.70;13.25;;;;;;;25.49;59.42;99453.03;5055328;28;20453;-68
2021/06/25 00:58:18;;;;;;;30.05;11.60;;;;;;;25.50;58.22;99451.09;5071931;28;20538;-69
2021/06/25 01:00:45;;;;;;;27.00;12.52;;;;;;;25.49;58.44;99442.16;5071962;28;20048;-69
2021/06/25 01:03:12;;;;;;;37.30;14.02;;;;;;;25.47;60.07;99438.03;5071822;28;20462;-68
2021/06/25 01:05:37;;;;;;;32.53;14.13;;;;;;;25.41;60.59;99456.22;5071838;28;20079;-68
2021/06/25 01:08:06;;;;;;;53.63;19.55;;;;;;;24.77;65.57;99449.00;5071973;28;20076;-68
2021/06/25 01:10:32;;;;;;;42.35;18.90;;;;;;;24.67;66.16;99476.84;5038881;28;20041;-68
2021/06/25 01:12:57;;;;;;;34.40;16.45;;;;;;;24.54;65.49;99457.38;5071854;28;20040;-68
2021/06/25 01:15:23;;;;;;;34.67;15.23;;;;;;;24.55;65.17;99448.97;5038300;28;20036;-69
2021/06/25 01:17:49;;;;;;;18.67;12.98;;;;;;;24.62;63.42;99462.31;5054782;28;20381;-68
2021/06/25 01:20:24;;;;;;;32.95;13.48;;;;;;;24.68;62.74;99469.50;5071429;28;20109;-68
2021/06/25 01:22:50;;;;;;;29.98;15.38;;;;;;;24.74;62.96;99453.00;5054779;28;20044;-67
2021/06/25 01:25:20;;;;;;;30.88;17.20;;;;;;;24.80;63.95;99460.16;5071446;28;20056;-68
2021/06/25 01:27:47;;;;;;;28.57;14.53;;;;;;;24.80;63.25;99452.00;5038187;28;20052;-68
2021/06/25 01:30:25;;;;;;;25.13;13.55;;;;;;;24.85;63.01;99457.50;5072717;28;20036;-68
2021/06/25 01:32:52;;;;;;;27.67;13.52;;;;;;;24.94;61.81;99459.75;5071239;28;20079;-69
2021/06/25 01:35:19;;;;;;;23.30;12.55;;;;;;;24.96;61.52;99444.84;5071192;28;20052;-68
2021/06/25 01:37:45;;;;;;;21.55;12.32;;;;;;;25.02;61.63;99443.81;5054826;28;20045;-68
2021/06/25 01:40:13;;;;;;;24.23;12.13;;;;;;;25.08;60.90;99442.78;5071001;28;20108;-66
2021/06/25 01:42:41;;;;;;;27.02;13.68;;;;;;;25.19;61.00;99460.00;5054180;28;20457;-68
2021/06/25 01:45:15;;;;;;;24.60;12.25;;;;;;;25.24;60.08;99454.63;5054550;28;20434;-70
2021/06/25 01:47:42;;;;;;;29.02;11.95;;;;;;;25.25;60.57;99461.72;5072338;28;20044;-68
2021/06/25 01:50:25;;;;;;;21.95;11.90;;;;;;;25.30;60.31;99459.88;5070769;28;20052;-68
2021/06/25 01:52:57;;;;;;;27.17;12.20;;;;;;;25.19;59.86;99447.25;5054147;28;20127;-68
2021/06/25 01:55:23;;;;;;;20.80;11.63;;;;;;;25.31;59.81;99475.09;5054321;28;20127;-69
2021/06/25 01:57:49;;;;;;;23.38;12.45;;;;;;;25.31;59.95;99469.66;5071008;28;20040;-67
2021/06/25 02:00:15;;;;;;;25.17;14.02;;;;;;;25.19;60.46;99455.41;5053941;28;20048;-68
2021/06/25 02:02:41;;;;;;;27.73;12.63;;;;;;;25.29;60.43;99481.88;5036599;28;20063;-68
2021/06/25 02:05:09;;;;;;;23.73;12.50;;;;;;;25.31;60.15;99475.09;5070938;28;20488;-71
2021/06/25 02:07:35;;;;;;;22.17;11.50;;;;;;;25.21;59.92;99452.44;5054400;28;20048;-69
2021/06/25 02:10:04;;;;;;;16.77;11.68;;;;;;;25.37;59.73;99474.09;5037010;28;20085;-72
2021/06/25 02:12:30;;;;;;;20.20;10.63;;;;;;;25.84;57.77;99472.34;5036884;28;20044;-72
2021/06/25 02:14:56;;;;;;;21.55;10.10;;;;;;;26.60;56.00;99481.81;5070465;28;20044;-72
2021/06/25 02:17:22;;;;;;;17.83;10.00;;;;;;;27.26;53.85;99480.22;5053602;28;20041;-72
2021/06/25 02:19:48;;;;;;;24.40;10.00;;;;;;;27.68;52.07;99469.88;5053346;28;20153;-72
2021/06/25 02:22:14;;;;;;;15.18;10.18;;;;;;;28.26;51.67;99466.59;5033971;28;20056;-72
2021/06/25 02:24:40;;;;;;;24.88;10.50;;;;;;;28.74;49.73;99471.34;5034193;28;20099;-71
2021/06/25 02:27:07;;;;;;;19.30;10.60;;;;;;;29.06;49.33;99484.66;5068000;28;20144;-74
2021/06/25 02:29:32;;;;;;;21.85;10.35;;;;;;;29.33;47.97;99472.16;5050654;28;20048;-74
2021/06/25 02:31:58;;;;;;;26.92;10.60;;;;;;;29.52;47.36;99481.31;5034002;28;20800;-73
2021/06/25 02:34:24;;;;;;;15.15;10.23;;;;;;;29.66;47.46;99470.59;5050299;28;20059;-72
2021/06/25 02:36:50;;;;;;;22.80;10.15;;;;;;;29.82;46.53;99471.25;5033896;28;20041;-73
2021/06/25 02:39:16;;;;;;;19.15;10.13;;;;;;;30.04;46.17;99474.34;5032357;28;20049;-73
2021/06/25 02:41:42;;;;;;;23.70;9.88;;;;;;;30.21;45.98;99466.56;5066740;28;20048;-73
2021/06/25 02:44:08;;;;;;;27.33;10.52;;;;;;;30.35;45.62;99462.03;5050396;28;20040;-73
2021/06/25 02:46:34;;;;;;;18.10;9.82;;;;;;;30.46;45.14;99461.59;5066380;28;20071;-72
2021/06/25 02:49:00;;;;;;;26.92;11.27;;;;;;;30.56;45.38;99460.66;5066795;28;20041;-70
2021/06/25 02:51:27;;;;;;;23.67;11.25;;;;;;;30.60;44.26;99473.50;5066447;28;20052;-73
2021/06/25 02:53:52;;;;;;;25.73;11.05;;;;;;;30.63;44.75;99477.59;5049982;28;20089;-73
2021/06/25 02:56:18;;;;;;;23.23;11.25;;;;;;;30.66;44.63;99469.59;5067185;28;20048;-70
2021/06/25 02:58:44;;;;;;;23.70;10.35;;;;;;;30.73;43.73;99466.50;5033085;28;20403;-73
2021/06/25 03:01:10;;;;;;;25.15;10.77;;;;;;;30.78;44.53;99466.47;5034004;28;20055;-72
2021/06/25 03:03:36;;;;;;;19.13;10.27;;;;;;;30.85;44.08;99458.69;5050160;28;20040;-73
2021/06/25 03:06:02;;;;;;;30.88;11.80;;;;;;;30.86;44.10;99452.09;5050059;28;20040;-74
2021/06/25 03:08:28;;;;;;;18.00;9.75;;;;;;;30.92;43.66;99454.47;5050352;28;20543;-74
2021/06/25 03:10:54;;;;;;;20.42;9.93;;;;;;;31.00;43.08;99459.31;5049620;28;20056;-73
2021/06/25 03:13:20;;;;;;;21.15;10.73;;;;;;;30.96;43.92;99444.56;5067808;28;20531;-73
2021/06/25 03:15:46;;;;;;;25.50;11.15;;;;;;;31.12;43.71;99445.94;5050047;28;20463;-73
2021/06/25 03:18:13;;;;;;;27.27;10.20;;;;;;;31.17;43.58;99447.81;5067016;28;20044;-73
2021/06/25 03:20:39;;;;;;;20.65;9.43;;;;;;;31.25;43.25;99454.56;5067684;28;20057;-73
2021/06/25 03:23:06;;;;;;;21.23;9.88;;;;;;;31.30;43.84;99455.34;5066470;28;20036;-74
2021/06/25 03:25:32;;;;;;;17.13;10.02;;;;;;;31.27;43.69;99447.69;5063580;28;20071;-73
2021/06/25 03:27:58;;;;;;;22.48;9.40;;;;;;;31.21;43.35;99437.88;5035778;28;20196;-73
2021/06/25 03:30:24;;;;;;;19.80;9.60;;;;;;;31.21;43.57;99440.63;5048887;28;20170;-74
2021/06/25 03:32:49;;;;;;;23.30;9.15;;;;;;;31.15;42.77;99439.88;5047965;28;20047;-71
2021/06/25 03:35:15;;;;;;;17.45;7.65;;;;;;;31.07;41.50;99431.50;5064393;28;20051;-73
2021/06/25 03:37:41;;;;;;;13.43;7.50;;;;;;;31.13;41.33;99436.63;5065805;28;20048;-73
2021/06/25 03:40:10;;;;;;;15.55;7.57;;;;;;;31.15;41.66;99444.56;5064418;28;20095;-73
2021/06/25 03:42:39;;;;;;;20.63;7.95;;;;;;;31.13;41.16;99452.25;5049116;28;20048;-74
2021/06/25 03:45:07;;;;;;;15.98;8.15;;;;;;;31.18;41.28;99443.97;5048909;28;20064;-73
2021/06/25 03:47:33;;;;;;;20.63;8.45;;;;;;;31.35;42.45;99454.44;5065424;28;20764;-73
2021/06/25 03:49:59;;;;;;;28.55;11.02;;;;;;;31.41;45.64;99442.28;5067113;28;20051;-74
2021/06/25 03:52:27;;;;;;;22.88;11.18;;;;;;;31.41;46.69;99448.59;5065895;28;20044;-74
2021/06/25 03:54:52;;;;;;;37.65;11.32;;;;;;;31.39;47.20;99444.50;5048846;28;20117;-74
2021/06/25 03:57:20;;;;;;;26.73;11.80;;;;;;;31.32;47.32;99444.91;5048903;28;20037;-75
2021/06/25 03:59:45;;;;;;;29.15;11.88;;;;;;;31.21;47.67;99434.31;5065628;28;20044;-75
2021/06/25 04:02:11;;;;;;;25.98;11.77;;;;;;;31.10;46.63;99436.41;5067480;28;20385;-75
2021/06/25 04:04:37;;;;;;;26.73;12.77;;;;;;;31.04;46.71;99448.56;5049203;28;20568;-75
2021/06/25 04:07:04;;;;;;;26.85;12.02;;;;;;;31.02;46.54;99453.50;5065715;28;20041;-74
2021/06/25 04:09:34;;;;;;;27.35;12.57;;;;;;;30.95;47.22;99450.34;5048717;28;20044;-74
2021/06/25 04:12:01;;;;;;;24.88;12.88;;;;;;;30.84;47.96;99455.16;5049299;28;20184;-74
2021/06/25 04:14:26;;;;;;;22.77;12.32;;;;;;;30.91;47.90;99452.84;5031949;28;20043;-74
2021/06/25 04:16:52;;;;;;;21.77;12.45;;;;;;;30.95;47.85;99453.09;5049005;28;20048;-74
2021/06/25 04:19:18;;;;;;;23.27;13.05;;;;;;;30.89;48.78;99454.25;5066064;28;20432;-74
2021/06/25 04:21:44;;;;;;;26.30;12.45;;;;;;;30.81;48.25;99455.75;5064727;28;20052;-73
2021/06/25 04:24:10;;;;;;;27.23;13.77;;;;;;;30.80;48.68;99453.25;5064129;28;20205;-73
2021/06/25 04:26:38;;;;;;;24.17;12.98;;;;;;;30.83;48.21;99448.00;5048111;28;20044;-72
2021/06/25 04:29:09;;;;;;;25.40;12.30;;;;;;;30.93;48.04;99452.56;5067504;28;20044;-73
2021/06/25 04:31:35;;;;;;;23.92;12.90;;;;;;;30.94;47.59;99445.94;5067569;28;20194;-73
2021/06/25 04:34:01;;;;;;;26.30;12.10;;;;;;;31.00;47.15;99462.03;5017840;28;20606;-73
2021/06/25 04:36:27;;;;;;;22.60;12.70;;;;;;;31.04;47.49;99451.31;5052196;28;20177;-73
2021/06/25 04:38:53;;;;;;;28.38;13.23;;;;;;;31.08;46.72;99455.06;5051987;28;20049;-72
2021/06/25 04:41:19;;;;;;;36.55;12.77;;;;;;;31.22;46.45;99450.47;5067990;28;20101;-73
2021/06/25 04:43:44;;;;;;;30.90;12.75;;;;;;;31.27;46.10;99455.09;5035873;28;20079;-73
2021/06/25 04:46:12;;;;;;;27.25;12.65;;;;;;;31.31;46.03;99451.47;5052464;28;20079;-73
2021/06/25 04:48:37;;;;;;;32.45;13.02;;;;;;;31.48;45.97;99449.00;5069057;28;20040;-71
2021/06/25 04:51:03;;;;;;;27.00;12.35;;;;;;;31.79;45.61;99447.41;5069121;28;20139;-71
2021/06/25 04:53:29;;;;;;;30.35;13.07;;;;;;;31.97;45.35;99445.72;5068715;28;20130;-72
2021/06/25 04:55:55;;;;;;;30.30;13.45;;;;;;;32.17;44.57;99450.84;5035403;28;20477;-73
2021/06/25 04:58:26;;;;;;;30.38;12.50;;;;;;;32.07;44.39;99440.06;5051712;28;20086;-73
2021/06/25 05:00:52;;;;;;;31.55;12.02;;;;;;;32.19;40.49;99454.13;5069958;28;20097;-72
2021/06/25 05:03:18;;;;;;;25.98;12.00;;;;;;;32.17;43.49;99457.19;5070113;28;20048;-72
2021/06/25 05:05:44;;;;;;;29.38;13.02;;;;;;;32.10;43.96;99448.53;5051905;28;20052;-72
2021/06/25 05:08:10;;;;;;;33.88;11.95;;;;;;;32.04;42.68;99421.44;5068700;28;20048;-72
2021/06/25 05:10:36;;;;;;;29.52;11.57;;;;;;;32.25;40.12;99440.00;5051301;28;20040;-71
2021/06/25 05:13:02;;;;;;;27.83;11.52;;;;;;;32.33;39.45;99447.53;5069855;28;20048;-73
2021/06/25 05:15:28;;;;;;;32.05;11.63;;;;;;;32.36;39.80;99444.22;5034740;28;20049;-73
2021/06/25 05:17:54;;;;;;;30.88;12.48;;;;;;;32.38;41.22;99441.16;5034851;28;20040;-72
2021/06/25 05:20:20;;;;;;;24.60;10.27;;;;;;;32.35;41.42;99431.56;5034969;28;20056;-72
2021/06/25 05:22:46;;;;;;;34.20;9.27;;;;;;;32.69;37.88;99434.72;5051247;28;20436;-73
2021/06/25 05:25:13;;;;;;;25.38;7.60;;;;;;;32.85;37.49;99439.88;5035201;28;20036;-74
2021/06/25 05:27:39;;;;;;;25.75;7.95;;;;;;;33.08;36.87;99439.66;5068613;28;20048;-77
2021/06/25 05:30:06;;;;;;;25.85;7.72;;;;;;;33.12;37.06;99437.91;5068009;28;20380;-74
2021/06/25 05:32:33;;;;;;;21.08;8.15;;;;;;;32.96;37.36;99433.91;5051248;28;20051;-74
2021/06/25 05:35:01;;;;;;;18.30;6.80;;;;;;;32.93;37.20;99440.03;5050834;28;20071;-73
2021/06/25 05:37:27;;;;;;;19.15;6.90;;;;;;;32.76;37.66;99442.56;5051246;28;20048;-73
2021/06/25 05:39:53;;;;;;;17.63;6.68;;;;;;;32.85;38.08;99439.88;5048793;28;20048;-75
2021/06/25 05:42:18;;;;;;;13.68;6.07;;;;;;;32.94;37.74;99438.88;5069049;28;20496;-75
2021/06/25 05:44:44;;;;;;;21.73;6.18;;;;;;;33.03;37.44;99428.78;5034650;28;20468;-73
2021/06/25 05:47:10;;;;;;;16.13;6.03;;;;;;;33.19;36.81;99434.75;5069524;28;20159;-73
2021/06/25 05:49:36;;;;;;;14.68;5.90;;;;;;;33.33;36.73;99441.84;5051528;28;20044;-73
2021/06/25 05:52:02;;;;;;;16.23;6.22;;;;;;;33.53;36.56;99435.88;5069215;28;20155;-73
2021/06/25 05:54:27;;;;;;;12.65;7.13;;;;;;;33.68;36.61;99445.69;5067603;28;20051;-73
2021/06/25 05:56:54;;;;;;;16.98;6.90;;;;;;;33.56;36.69;99426.16;5050514;28;20042;-73
2021/06/25 05:59:19;;;;;;;16.98;6.65;;;;;;;33.72;36.85;99443.97;5050937;28;20127;-74
2021/06/25 06:01:45;;;;;;;12.00;6.60;;;;;;;33.88;36.57;99428.66;5068586;28;20123;-71
2021/06/25 06:04:11;;;;;;;13.27;7.43;;;;;;;33.82;36.45;99438.16;5068936;28;20050;-73
2021/06/25 06:06:37;;;;;;;12.23;7.03;;;;;;;33.88;36.55;99439.66;5068642;28;20049;-73
2021/06/25 06:09:03;;;;;;;13.85;7.03;;;;;;;34.03;36.40;99455.84;5050581;28;20105;-74
2021/06/25 06:11:30;;;;;;;15.77;7.20;;;;;;;34.08;36.29;99453.78;5050462;28;20393;-74
2021/06/25 06:13:55;;;;;;;15.63;7.60;;;;;;;34.07;36.18;99467.88;5050646;28;20072;-69
2021/06/25 06:16:21;;;;;;;16.20;7.25;;;;;;;33.77;37.20;99468.59;5033931;28;20064;-72
2021/06/25 06:18:48;;;;;;;22.02;8.00;;;;;;;33.53;37.53;99468.94;5067889;28;20421;-71
2021/06/25 06:21:19;;;;;;;18.77;7.30;;;;;;;33.11;38.34;99463.81;5050273;28;20045;-71
2021/06/25 06:34:32;;;;;;;13.80;6.70;;;;;;;33.64;37.16;99466.75;5067791;28;20044;-72
2021/06/25 06:36:58;;;;;;;20.10;7.68;;;;;;;33.80;37.19;99479.81;5066370;28;20047;-72
2021/06/25 06:39:24;;;;;;;15.38;5.55;;;;;;;33.64;35.69;99466.75;5064457;28;20036;-71
2021/06/25 06:41:50;;;;;;;16.08;5.93;;;;;;;33.73;36.11;99479.47;5066849;28;20044;-71
2021/06/25 06:44:15;;;;;;;13.23;5.63;;;;;;;33.64;34.59;99486.84;5066720;28;20475;-71
2021/06/25 06:46:41;;;;;;;17.95;5.97;;;;;;;33.68;34.94;99490.59;5066682;28;20043;-73
2021/06/25 06:49:07;;;;;;;21.90;5.80;;;;;;;33.61;35.38;99490.19;5049419;28;20443;-72
2021/06/25 06:51:33;;;;;;;18.15;6.07;;;;;;;33.63;35.47;99490.72;5068233;28;20587;-73
2021/06/25 06:54:02;;;;;;;14.23;6.60;;;;;;;33.63;35.24;99492.69;5066472;28;20056;-72
2021/06/25 06:56:28;;;;;;;16.15;5.90;;;;;;;33.75;34.71;99487.41;5065722;28;20136;-72
2021/06/25 06:58:54;;;;;;;11.00;5.82;;;;;;;34.02;35.18;99498.31;5066119;28;20052;-72
2021/06/25 07:01:24;;;;;;;13.88;6.95;;;;;;;34.17;35.48;99495.97;5049950;28;20166;-71
2021/06/25 07:03:49;;;;;;;16.50;6.70;;;;;;;34.15;35.14;99508.47;5066485;28;20040;-72
2021/06/25 07:06:15;;;;;;;17.05;6.88;;;;;;;34.22;34.95;99509.66;5066980;28;20041;-71
2021/06/25 07:08:41;;;;;;;21.67;6.72;;;;;;;34.47;34.60;99499.91;5033394;28;20036;-71
2021/06/25 07:11:08;;;;;;;17.60;6.50;;;;;;;34.58;34.28;99501.25;5066238;28;20397;-72
2021/06/25 07:13:33;;;;;;;19.13;7.22;;;;;;;34.70;34.78;99493.19;5067733;28;20036;-71
2021/06/25 07:15:59;;;;;;;18.75;6.80;;;;;;;34.90;34.85;99494.56;5049868;28;20465;-72
2021/06/25 07:18:25;;;;;;;21.50;5.88;;;;;;;34.98;33.52;99497.34;5067426;28;20044;-71
2021/06/25 07:20:51;;;;;;;16.20;6.15;;;;;;;35.22;33.08;99486.69;5065636;28;20134;-71
2021/06/25 07:23:17;;;;;;;13.18;6.32;;;;;;;35.49;32.29;99491.91;5033423;28;20048;-71
2021/06/25 07:25:43;;;;;;;15.27;5.90;;;;;;;35.80;31.37;99490.94;5066577;28;20060;-71
2021/06/25 07:28:09;;;;;;;18.00;6.43;;;;;;;36.18;31.28;99480.81;5049837;28;20424;-71
2021/06/25 07:30:35;;;;;;;14.48;6.05;;;;;;;36.74;30.59;99480.44;5067804;28;20453;-71
2021/06/25 07:33:01;;;;;;;14.20;5.72;;;;;;;37.51;29.13;99489.09;5033219;28;20692;-71
2021/06/25 07:35:27;;;;;;;13.85;6.15;;;;;;;38.24;28.05;99479.94;5049576;28;20459;-73
2021/06/25 07:37:53;;;;;;;12.25;6.15;;;;;;;38.94;27.37;99481.53;5032423;28;20089;-72
2021/06/25 07:40:19;;;;;;;19.20;5.90;;;;;;;39.12;26.42;99487.69;5014183;28;20048;-71
2021/06/25 07:42:46;;;;;;;18.38;7.00;;;;;;;39.61;25.78;99481.66;5049330;28;20064;-71
2021/06/25 07:45:12;;;;;;;14.60;5.70;;;;;;;40.49;25.20;99461.84;5067212;28;20041;-71
2021/06/25 07:47:40;;;;;;;11.32;5.57;;;;;;;42.18;23.46;99458.06;5066003;28;20094;-72
2021/06/25 07:50:09;;;;;;;10.02;5.63;;;;;;;43.82;21.10;99469.41;5066148;28;20075;-72
2021/06/25 07:52:35;;;;;;;11.73;5.35;;;;;;;44.48;19.72;99480.53;5066135;28;20561;-72
2021/06/25 07:55:02;;;;;;;17.02;5.80;;;;;;;45.42;18.51;99469.25;5066237;28;20410;-72
2021/06/25 07:57:28;;;;;;;10.95;5.55;;;;;;;46.33;17.43;99465.94;5065555;28;20037;-72
2021/06/25 07:59:54;;;;;;;13.00;6.13;;;;;;;47.01;16.96;99456.31;5067223;28;20051;-72
2021/06/25 08:02:19;;;;;;;11.90;5.35;;;;;;;47.59;16.45;99457.34;5052126;28;20047;-71
2021/06/25 08:04:46;;;;;;;11.80;4.90;;;;;;;46.38;16.79;99448.66;5053090;28;20044;-71
2021/06/25 08:07:13;;;;;;;13.50;5.93;;;;;;;46.89;17.04;99453.91;5053365;28;20041;-72
2021/06/25 08:09:39;;;;;;;15.85;4.85;;;;;;;47.83;16.07;99452.81;5071009;28;20144;-72
2021/06/25 08:12:06;;;;;;;11.15;5.00;;;;;;;47.81;15.06;99449.59;5053212;28;20048;-72
2021/06/25 08:14:32;;;;;;;14.57;5.00;;;;;;;47.82;15.23;99450.41;5070942;28;20523;-72
2021/06/25 08:16:57;;;;;;;13.73;5.18;;;;;;;48.57;14.31;99450.31;5069203;28;20041;-71
2021/06/25 08:19:23;;;;;;;16.98;4.47;;;;;;;49.23;13.78;99448.06;5052315;28;20064;-72
2021/06/25 08:21:49;;;;;;;11.23;4.47;;;;;;;48.72;14.73;99439.72;5071205;28;20610;-71
2021/06/25 08:24:14;;;;;;;11.23;4.90;;;;;;;47.58;15.66;99429.59;5071012;28;20051;-76
2021/06/25 08:26:40;;;;;;;18.15;4.57;;;;;;;46.24;16.67;99417.78;5035947;28;20051;-70
2021/06/25 08:29:06;;;;;;;14.75;4.72;;;;;;;45.22;17.97;99439.03;5052500;28;20075;-70
2021/06/25 08:31:32;;;;;;;9.77;3.40;;;;;;;43.62;17.77;99446.38;5035879;28;20043;-70
2021/06/25 08:33:57;;;;;;;16.17;4.80;;;;;;;42.58;19.42;99455.59;5070522;28;20416;-70
2021/06/25 08:36:25;;;;;;;21.92;4.15;;;;;;;42.00;20.41;99468.09;5070441;28;20040;-70
2021/06/25 08:38:51;;;;;;;25.50;4.93;;;;;;;41.54;20.91;99456.00;5069809;28;20044;-71
2021/06/25 08:41:17;;;;;;;15.80;3.95;;;;;;;41.02;21.06;99465.94;5050216;28;20067;-71
2021/06/25 08:43:43;;;;;;;18.73;4.10;;;;;;;40.45;21.99;99452.59;5069240;28;20051;-71
2021/06/25 08:46:10;;;;;;;25.80;4.53;;;;;;;39.77;23.12;99443.56;5069269;28;20078;-70
2021/06/25 08:48:37;;;;;;;23.80;4.60;;;;;;;38.91;24.13;99436.97;5052334;28;20141;-70
2021/06/25 08:51:03;;;;;;;17.77;4.47;;;;;;;38.09;25.03;99444.50;5070512;28;20135;-70
2021/06/25 08:53:29;;;;;;;19.65;4.15;;;;;;;37.50;25.68;99448.69;5068818;28;20576;-70
2021/06/25 08:55:55;;;;;;;12.40;3.92;;;;;;;37.24;25.99;99467.47;5052170;28;20037;-69
2021/06/25 08:58:22;;;;;;;24.90;4.78;;;;;;;36.87;26.85;99462.81;5051633;28;20097;-70
2021/06/25 09:00:48;;;;;;;17.23;4.05;;;;;;;36.40;27.46;99462.03;5068307;28;20059;-69
2021/06/25 09:03:31;;;;;;;13.48;4.68;;;;;;;35.61;28.57;99445.09;5052051;28;20504;-70
2021/06/25 09:06:12;;;;;;;18.83;5.22;;;;;;;35.02;30.26;99456.91;5068366;28;20536;-70
2021/06/25 09:08:38;;;;;;;14.90;5.45;;;;;;;34.37;31.67;99467.03;5051712;28;20072;-70
2021/06/25 09:11:32;;;;;;;11.30;5.05;;;;;;;33.92;32.62;99473.78;5068460;28;20048;-70
2021/06/25 09:14:03;;;;;;;17.33;5.35;;;;;;;33.61;33.23;99459.09;5052384;28;20166;-71
2021/06/25 09:16:31;;;;;;;12.20;5.13;;;;;;;33.32;33.63;99434.69;5068503;28;20044;-71
2021/06/25 09:19:00;;;;;;;13.52;5.30;;;;;;;33.23;33.86;99453.09;5051529;28;20548;-70
2021/06/25 09:21:28;;;;;;;17.03;5.50;;;;;;;32.89;34.78;99449.19;5018210;28;20040;-70
2021/06/25 09:23:55;;;;;;;13.90;5.45;;;;;;;32.46;35.72;99463.25;5068082;28;20067;-70
2021/06/25 09:26:22;;;;;;;25.65;5.95;;;;;;;31.85;37.47;99462.72;5035013;28;20044;-70
2021/06/25 09:28:50;;;;;;;20.38;6.53;;;;;;;31.35;39.25;99465.44;5051673;28;20048;-70
2021/06/25 09:31:24;;;;;;;34.25;7.10;;;;;;;30.88;40.49;99453.44;5066034;28;20127;-70
2021/06/25 09:33:54;;;;;;;24.33;6.72;;;;;;;30.74;41.10;99476.34;5065607;28;20040;-70
2021/06/25 09:36:25;;;;;;;26.48;7.05;;;;;;;30.53;41.94;99461.25;5049308;28;20540;-70
2021/06/25 09:39:06;;;;;;;22.27;7.00;;;;;;;30.37;42.02;99459.81;5049118;28;20036;-70
2021/06/25 09:41:32;;;;;;;21.13;7.07;;;;;;;30.19;42.12;99458.59;5047767;28;20094;-70
2021/06/25 09:43:59;;;;;;;18.67;6.53;;;;;;;30.11;42.21;99451.00;5033067;28;20044;-69
2021/06/25 09:46:29;;;;;;;19.27;6.80;;;;;;;29.95;42.08;99449.53;5067394;28;20091;-70
2021/06/25 09:48:57;;;;;;;12.18;6.03;;;;;;;29.75;41.88;99446.16;5051343;28;20074;-70
2021/06/25 09:51:24;;;;;;;21.75;7.13;;;;;;;29.54;42.31;99443.53;5069027;28;20132;-70
2021/06/25 09:54:14;;;;;;;16.23;6.45;;;;;;;29.53;43.09;99463.00;5051005;28;20040;-70
2021/06/25 09:56:53;;;;;;;16.38;6.88;;;;;;;29.41;42.65;99451.59;5051443;28;20186;-70
2021/06/25 10:00:09;;;;;;;12.23;6.07;;;;;;;29.31;41.75;99448.91;5035142;28;20532;-69
2021/06/25 10:02:30;;;;;;;21.55;5.80;;;;;;;29.17;39.96;99451.47;5039839;28;20052;-70
2021/06/25 10:05:05;;;;;;;14.77;6.18;;;;;;;29.16;39.31;99454.50;5034192;28;20094;-70
2021/06/25 10:07:32;;;;;;;12.27;5.55;;;;;;;29.17;40.11;99462.41;5035333;28;20040;-70
2021/06/25 10:10:09;;;;;;;16.13;5.45;;;;;;;29.22;40.65;99467.03;5018225;28;20048;-69
2021/06/25 10:12:38;;;;;;;18.75;5.70;;;;;;;29.21;40.26;99462.66;5035342;28;20040;-70
2021/06/25 10:15:05;;;;;;;15.45;5.28;;;;;;;29.14;40.23;99441.09;5067472;28;20037;-70
2021/06/25 10:17:31;;;;;;;29.13;6.70;;;;;;;29.32;40.13;99459.56;5050779;28;20044;-70
2021/06/25 10:20:07;;;;;;;15.70;5.47;;;;;;;29.41;39.16;99463.38;5033567;28;20075;-70
2021/06/25 10:22:34;;;;;;;10.48;5.53;;;;;;;29.49;38.48;99462.75;5033692;28;20110;-70
2021/06/25 10:25:02;;;;;;;15.43;5.18;;;;;;;29.56;38.46;99463.25;5033152;28;20041;-70
2021/06/25 10:27:29;;;;;;;14.00;5.32;;;;;;;29.62;38.19;99469.47;5049511;28;20054;-69
2021/06/25 10:29:56;;;;;;;15.75;5.35;;;;;;;29.65;38.48;99466.22;5033733;28;20047;-70
2021/06/25 10:32:22;;;;;;;14.95;4.95;;;;;;;29.60;38.29;99449.78;5033842;28;20419;-70
2021/06/25 10:34:48;;;;;;;14.75;4.60;;;;;;;29.74;37.82;99458.22;5066416;28;20044;-70
2021/06/25 10:37:21;;;;;;;12.50;4.55;;;;;;;29.81;37.33;99455.94;5033983;28;20064;-70
2021/06/25 10:39:47;;;;;;;12.40;4.20;;;;;;;29.85;37.01;99451.50;5014886;28;20588;-70
2021/06/25 10:42:13;;;;;;;13.75;3.80;;;;;;;29.90;36.79;99457.78;5050105;28;20135;-70
2021/06/25 10:44:54;;;;;;;9.25;4.18;;;;;;;30.00;36.65;99462.34;5049603;28;20105;-70
2021/06/25 10:47:22;;;;;;;18.42;5.30;;;;;;;30.09;36.91;99458.69;5049766;28;20041;-70
2021/06/25 10:50:03;;;;;;;14.68;6.65;;;;;;;30.26;37.66;99458.28;5066476;28;20048;-70
2021/06/25 10:52:40;;;;;;;24.95;7.15;;;;;;;30.36;38.22;99447.19;5049709;28;20052;-70
2021/06/25 10:55:14;;;;;;;20.92;7.13;;;;;;;30.56;38.19;99447.78;5066573;28;20509;-70
2021/06/25 10:57:48;;;;;;;25.45;7.50;;;;;;;30.84;37.91;99452.41;5033368;28;20032;-71
2021/06/25 11:00:25;;;;;;;17.70;6.82;;;;;;;31.12;37.63;99442.41;5033180;28;20084;-69
2021/06/25 11:02:53;;;;;;;25.75;6.60;;;;;;;31.42;37.33;99444.72;5065970;28;20147;-70
2021/06/25 11:05:21;;;;;;;25.50;7.70;;;;;;;31.63;37.01;99417.75;5050178;28;20107;-70
2021/06/25 11:07:49;;;;;;;20.13;6.95;;;;;;;31.98;36.07;99439.97;5049902;28;20048;-71
2021/06/25 11:10:23;;;;;;;21.60;6.05;;;;;;;32.36;35.32;99430.47;5049414;28;20081;-72
2021/06/25 11:12:50;;;;;;;18.67;6.80;;;;;;;32.81;nan;99433.38;5049632;28;20059;-70
2021/06/25 11:15:17;;;;;;;20.27;6.47;;;;;;;33.25;33.53;99419.72;5049832;28;20127;-71
2021/06/25 11:18:15;;;;;;;23.13;6.50;;;;;;;33.73;32.31;99415.28;5066475;28;20044;-70
2021/06/25 11:20:58;;;;;;;50.92;8.20;;;;;;;34.25;31.62;99414.44;5032478;28;20056;-71
2021/06/25 11:23:38;;;;;;;37.95;8.13;;;;;;;34.64;30.73;99400.66;5049837;28;20136;-70
2021/06/25 11:26:17;;;;;;;54.85;8.65;;;;;;;35.13;30.41;99414.06;5067342;28;20052;-71
2021/06/25 11:29:09;;;;;;;45.50;8.55;;;;;;;35.64;29.47;99407.72;5066221;28;20097;-72
2021/06/25 11:31:35;;;;;;;43.55;8.50;;;;;;;36.02;28.53;99416.09;5049715;28;20044;-73
2021/06/25 11:34:04;;;;;;;31.63;7.15;;;;;;;36.33;28.05;99411.13;5049329;28;20399;-71
2021/06/25 11:36:34;;;;;;;29.55;6.90;;;;;;;36.35;28.38;99417.94;5069029;28;20041;-71